sensor_id;sensor_type;location;lat;lon;timestamp;temperature;humidity
22578;DHT22;11455;52.390;13.028;2023-06-01T00:01:27;19.10;1.00
22578;DHT22;11455;52.390;13.028;2023-06-01T00:03:58;19.00;1.00
22578;DHT22;11455;52.390;13.028;2023-06-01T00:06:24;18.90;1.00
22578;DHT22;11455;52.390;13.028;2023-06-01T00:08:54;18.90;1.00
22578;DHT22;11455;52.390;13.028;2023-06-01T00:11:20;18.80;1.00
22578;DHT22;11455;52.390;13.028;2023-06-01T00:13:47;18.80;1.00
22578;DHT22;11455;52.390;13.028;2023-06-01T00:16:13;18.90;1.00
22578;DHT22;11455;52.390;13.028;2023-06-01T00:18:39;18.90;1.00
22578;DHT22;11455;52.390;13.028;2023-06-01T00:21:05;18.90;1.00
22578;DHT22;11455;52.390;13.028;2023-06-01T00:23:31;18.90;1.00
22578;DHT22;11455;52.390;13.028;2023-06-01T00:25:57;18.90;1.00
22578;DHT22;11455;52.390;13.028;2023-06-01T00:28:23;18.90;1.00
22578;DHT22;11455;52.390;13.028;2023-06-01T00:30:49;18.90;1.00
22578;DHT22;11455;52.390;13.028;2023-06-01T00:33:14;18.90;1.00
22578;DHT22;11455;52.390;13.028;2023-06-01T00:35:41;19.00;1.00
22578;DHT22;11455;52.390;13.028;2023-06-01T00:38:07;18.90;1.00
22578;DHT22;11455;52.390;13.028;2023-06-01T00:40:33;18.90;1.00
22578;DHT22;11455;52.390;13.028;2023-06-01T00:42:59;18.80;1.00
22578;DHT22;11455;52.390;13.028;2023-06-01T00:45:25;18.80;1.00
22578;DHT22;11455;52.390;13.028;2023-06-01T00:47:50;18.90;1.00
22578;DHT22;11455;52.390;13.028;2023-06-01T00:50:16;18.90;1.00
22578;DHT22;11455;52.390;13.028;2023-06-01T00:52:42;18.80;1.00
22578;DHT22;11455;52.390;13.028;2023-06-01T00:55:08;18.80;1.00
22578;DHT22;11455;52.390;13.028;2023-06-01T00:57:35;18.70;1.00
22578;DHT22;11455;52.390;13.028;2023-06-01T01:00:02;18.60;1.00
22578;DHT22;11455;52.390;13.028;2023-06-01T01:02:35;18.50;1.00
22578;DHT22;11455;52.390;13.028;2023-06-01T01:05:03;18.30;1.00
22578;DHT22;11455;52.390;13.028;2023-06-01T01:07:35;18.10;1.00
22578;DHT22;11455;52.390;13.028;2023-06-01T01:10:13;18.00;1.00
22578;DHT22;11455;52.390;13.028;2023-06-01T01:12:50;18.10;1.00
22578;DHT22;11455;52.390;13.028;2023-06-01T01:18:19;18.20;1.00
22578;DHT22;11455;52.390;13.028;2023-06-01T01:20:48;17.90;1.00
22578;DHT22;11455;52.390;13.028;2023-06-01T01:26:09;17.50;1.00
22578;DHT22;11455;52.390;13.028;2023-06-01T01:28:42;17.30;1.00
22578;DHT22;11455;52.390;13.028;2023-06-01T01:31:12;17.30;1.00
22578;DHT22;11455;52.390;13.028;2023-06-01T01:33:38;17.10;1.00
22578;DHT22;11455;52.390;13.028;2023-06-01T01:36:05;17.10;1.00
22578;DHT22;11455;52.390;13.028;2023-06-01T01:38:33;17.00;10.10
22578;DHT22;11455;52.390;13.028;2023-06-01T01:40:59;16.90;18.50
22578;DHT22;11455;52.390;13.028;2023-06-01T01:43:27;16.90;23.10
22578;DHT22;11455;52.390;13.028;2023-06-01T01:45:55;16.90;29.90
22578;DHT22;11455;52.390;13.028;2023-06-01T01:48:23;16.90;34.00
22578;DHT22;11455;52.390;13.028;2023-06-01T01:50:56;16.80;45.40
22578;DHT22;11455;52.390;13.028;2023-06-01T01:53:22;16.70;57.10
22578;DHT22;11455;52.390;13.028;2023-06-01T01:55:50;16.60;75.80
22578;DHT22;11455;52.390;13.028;2023-06-01T01:58:16;16.60;88.10
22578;DHT22;11455;52.390;13.028;2023-06-01T02:00:43;16.50;94.50
22578;DHT22;11455;52.390;13.028;2023-06-01T02:03:16;16.50;99.60
22578;DHT22;11455;52.390;13.028;2023-06-01T02:05:42;16.30;99.90
22578;DHT22;11455;52.390;13.028;2023-06-01T02:08:08;16.30;99.90
22578;DHT22;11455;52.390;13.028;2023-06-01T02:10:35;16.20;99.90
22578;DHT22;11455;52.390;13.028;2023-06-01T02:13:01;16.10;99.90
22578;DHT22;11455;52.390;13.028;2023-06-01T02:15:26;16.10;99.90
22578;DHT22;11455;52.390;13.028;2023-06-01T02:17:52;16.00;99.90
22578;DHT22;11455;52.390;13.028;2023-06-01T02:20:19;16.00;99.90
22578;DHT22;11455;52.390;13.028;2023-06-01T02:22:45;15.90;99.90
22578;DHT22;11455;52.390;13.028;2023-06-01T02:25:10;15.90;99.90
22578;DHT22;11455;52.390;13.028;2023-06-01T02:27:36;15.90;99.90
22578;DHT22;11455;52.390;13.028;2023-06-01T02:30:05;15.90;99.90
22578;DHT22;11455;52.390;13.028;2023-06-01T02:32:32;15.90;99.90
22578;DHT22;11455;52.390;13.028;2023-06-01T02:34:58;15.80;99.90
22578;DHT22;11455;52.390;13.028;2023-06-01T02:37:24;15.80;99.90
22578;DHT22;11455;52.390;13.028;2023-06-01T02:39:52;15.90;99.90
22578;DHT22;11455;52.390;13.028;2023-06-01T02:42:20;15.80;99.90
22578;DHT22;11455;52.390;13.028;2023-06-01T02:44:46;15.80;99.90
22578;DHT22;11455;52.390;13.028;2023-06-01T02:47:12;15.90;99.90
22578;DHT22;11455;52.390;13.028;2023-06-01T02:49:37;15.90;99.90
22578;DHT22;11455;52.390;13.028;2023-06-01T02:52:03;15.90;99.90
22578;DHT22;11455;52.390;13.028;2023-06-01T02:54:29;15.80;99.90
22578;DHT22;11455;52.390;13.028;2023-06-01T02:56:55;15.70;99.90
22578;DHT22;11455;52.390;13.028;2023-06-01T02:59:32;15.60;99.90
22578;DHT22;11455;52.390;13.028;2023-06-01T03:02:01;15.60;99.90
22578;DHT22;11455;52.390;13.028;2023-06-01T03:04:27;15.70;99.90
22578;DHT22;11455;52.390;13.028;2023-06-01T03:06:55;15.80;99.90
22578;DHT22;11455;52.390;13.028;2023-06-01T03:09:42;16.00;99.90
22578;DHT22;11455;52.390;13.028;2023-06-01T03:12:19;16.00;99.90
22578;DHT22;11455;52.390;13.028;2023-06-01T03:14:44;15.90;99.90
22578;DHT22;11455;52.390;13.028;2023-06-01T03:17:10;15.80;99.90
22578;DHT22;11455;52.390;13.028;2023-06-01T03:19:36;15.70;99.90
22578;DHT22;11455;52.390;13.028;2023-06-01T03:22:10;15.60;99.90
22578;DHT22;11455;52.390;13.028;2023-06-01T03:24:36;15.60;99.90
22578;DHT22;11455;52.390;13.028;2023-06-01T03:27:02;15.60;99.90
22578;DHT22;11455;52.390;13.028;2023-06-01T03:29:33;15.60;99.90
22578;DHT22;11455;52.390;13.028;2023-06-01T03:31:59;15.40;99.90
22578;DHT22;11455;52.390;13.028;2023-06-01T03:34:25;15.40;99.90
22578;DHT22;11455;52.390;13.028;2023-06-01T03:36:52;15.60;99.90
22578;DHT22;11455;52.390;13.028;2023-06-01T03:39:21;15.60;99.90
22578;DHT22;11455;52.390;13.028;2023-06-01T03:41:46;15.60;99.90
22578;DHT22;11455;52.390;13.028;2023-06-01T03:44:12;15.40;99.90
22578;DHT22;11455;52.390;13.028;2023-06-01T03:46:38;15.40;99.90
22578;DHT22;11455;52.390;13.028;2023-06-01T03:49:04;15.40;99.90
22578;DHT22;11455;52.390;13.028;2023-06-01T03:51:31;15.50;99.90
22578;DHT22;11455;52.390;13.028;2023-06-01T03:53:57;15.40;99.90
22578;DHT22;11455;52.390;13.028;2023-06-01T03:56:23;15.20;99.90
22578;DHT22;11455;52.390;13.028;2023-06-01T03:58:50;15.00;99.90
22578;DHT22;11455;52.390;13.028;2023-06-01T04:01:16;14.90;99.90
22578;DHT22;11455;52.390;13.028;2023-06-01T04:03:46;14.90;99.90
22578;DHT22;11455;52.390;13.028;2023-06-01T04:06:14;14.80;99.90
22578;DHT22;11455;52.390;13.028;2023-06-01T04:08:45;14.80;99.90
22578;DHT22;11455;52.390;13.028;2023-06-01T04:11:15;14.80;99.90
22578;DHT22;11455;52.390;13.028;2023-06-01T04:13:42;14.70;99.90
22578;DHT22;11455;52.390;13.028;2023-06-01T04:16:12;14.70;99.90
22578;DHT22;11455;52.390;13.028;2023-06-01T04:18:39;14.80;99.90
22578;DHT22;11455;52.390;13.028;2023-06-01T04:21:05;14.80;99.90
22578;DHT22;11455;52.390;13.028;2023-06-01T04:23:32;14.80;99.90
22578;DHT22;11455;52.390;13.028;2023-06-01T04:25:58;14.70;99.90
22578;DHT22;11455;52.390;13.028;2023-06-01T04:28:26;14.60;99.90
22578;DHT22;11455;52.390;13.028;2023-06-01T04:30:53;14.50;99.90
22578;DHT22;11455;52.390;13.028;2023-06-01T04:33:20;14.40;99.90
22578;DHT22;11455;52.390;13.028;2023-06-01T04:35:48;14.50;99.90
22578;DHT22;11455;52.390;13.028;2023-06-01T04:38:14;14.40;99.90
22578;DHT22;11455;52.390;13.028;2023-06-01T04:40:43;14.40;99.90
22578;DHT22;11455;52.390;13.028;2023-06-01T04:43:11;14.40;99.90
22578;DHT22;11455;52.390;13.028;2023-06-01T04:45:38;14.30;99.90
22578;DHT22;11455;52.390;13.028;2023-06-01T04:48:15;14.30;99.90
22578;DHT22;11455;52.390;13.028;2023-06-01T04:50:50;14.50;99.90
22578;DHT22;11455;52.390;13.028;2023-06-01T04:53:15;14.40;99.90
22578;DHT22;11455;52.390;13.028;2023-06-01T04:55:41;14.40;99.90
22578;DHT22;11455;52.390;13.028;2023-06-01T04:58:09;14.30;99.90
22578;DHT22;11455;52.390;13.028;2023-06-01T05:00:35;14.20;99.90
22578;DHT22;11455;52.390;13.028;2023-06-01T05:03:01;14.20;99.90
22578;DHT22;11455;52.390;13.028;2023-06-01T05:05:28;14.20;99.90
22578;DHT22;11455;52.390;13.028;2023-06-01T05:07:54;14.20;99.90
22578;DHT22;11455;52.390;13.028;2023-06-01T05:10:20;14.10;99.90
22578;DHT22;11455;52.390;13.028;2023-06-01T05:12:48;14.10;99.90
22578;DHT22;11455;52.390;13.028;2023-06-01T05:15:16;14.10;99.90
22578;DHT22;11455;52.390;13.028;2023-06-01T05:17:42;14.00;99.90
22578;DHT22;11455;52.390;13.028;2023-06-01T05:20:14;13.90;99.90
22578;DHT22;11455;52.390;13.028;2023-06-01T05:22:42;13.90;99.90
22578;DHT22;11455;52.390;13.028;2023-06-01T05:25:08;13.90;99.90
22578;DHT22;11455;52.390;13.028;2023-06-01T05:27:35;13.90;99.90
22578;DHT22;11455;52.390;13.028;2023-06-01T05:30:01;13.90;99.90
22578;DHT22;11455;52.390;13.028;2023-06-01T05:32:27;13.90;99.90
22578;DHT22;11455;52.390;13.028;2023-06-01T05:34:59;13.90;99.90
22578;DHT22;11455;52.390;13.028;2023-06-01T05:37:25;13.90;99.90
22578;DHT22;11455;52.390;13.028;2023-06-01T05:39:51;13.90;99.90
22578;DHT22;11455;52.390;13.028;2023-06-01T05:42:17;13.90;99.90
22578;DHT22;11455;52.390;13.028;2023-06-01T05:44:42;13.90;99.90
22578;DHT22;11455;52.390;13.028;2023-06-01T05:47:08;13.90;99.90
22578;DHT22;11455;52.390;13.028;2023-06-01T05:49:35;13.90;99.90
22578;DHT22;11455;52.390;13.028;2023-06-01T05:52:01;13.90;99.90
22578;DHT22;11455;52.390;13.028;2023-06-01T05:54:27;13.90;99.90
22578;DHT22;11455;52.390;13.028;2023-06-01T05:56:55;13.80;99.90
22578;DHT22;11455;52.390;13.028;2023-06-01T05:59:21;13.90;99.90
22578;DHT22;11455;52.390;13.028;2023-06-01T06:01:47;14.00;99.90
22578;DHT22;11455;52.390;13.028;2023-06-01T06:04:14;14.00;99.90
22578;DHT22;11455;52.390;13.028;2023-06-01T06:06:40;13.90;99.90
22578;DHT22;11455;52.390;13.028;2023-06-01T06:09:06;13.80;99.90
22578;DHT22;11455;52.390;13.028;2023-06-01T06:11:31;13.90;99.90
22578;DHT22;11455;52.390;13.028;2023-06-01T06:13:57;13.80;99.90
22578;DHT22;11455;52.390;13.028;2023-06-01T06:16:23;13.80;99.90
22578;DHT22;11455;52.390;13.028;2023-06-01T06:18:52;13.80;99.90
22578;DHT22;11455;52.390;13.028;2023-06-01T06:21:17;13.70;99.90
22578;DHT22;11455;52.390;13.028;2023-06-01T06:23:43;13.70;99.90
22578;DHT22;11455;52.390;13.028;2023-06-01T06:26:10;13.70;99.90
22578;DHT22;11455;52.390;13.028;2023-06-01T06:28:35;13.70;99.90
22578;DHT22;11455;52.390;13.028;2023-06-01T06:31:01;13.80;99.90
22578;DHT22;11455;52.390;13.028;2023-06-01T06:33:27;13.90;99.90
22578;DHT22;11455;52.390;13.028;2023-06-01T06:35:53;14.00;99.90
22578;DHT22;11455;52.390;13.028;2023-06-01T06:38:18;14.10;99.90
22578;DHT22;11455;52.390;13.028;2023-06-01T06:40:44;14.10;99.90
22578;DHT22;11455;52.390;13.028;2023-06-01T06:43:10;14.20;99.90
22578;DHT22;11455;52.390;13.028;2023-06-01T06:45:35;14.10;99.90
22578;DHT22;11455;52.390;13.028;2023-06-01T06:48:01;14.20;99.90
22578;DHT22;11455;52.390;13.028;2023-06-01T06:50:27;14.40;99.90
22578;DHT22;11455;52.390;13.028;2023-06-01T06:52:53;14.40;99.90
22578;DHT22;11455;52.390;13.028;2023-06-01T06:55:18;14.40;99.90
22578;DHT22;11455;52.390;13.028;2023-06-01T06:57:44;14.40;99.90
22578;DHT22;11455;52.390;13.028;2023-06-01T07:00:10;14.60;99.90
22578;DHT22;11455;52.390;13.028;2023-06-01T07:02:41;14.50;99.90
22578;DHT22;11455;52.390;13.028;2023-06-01T07:05:09;14.50;99.90
22578;DHT22;11455;52.390;13.028;2023-06-01T07:07:36;14.50;99.90
22578;DHT22;11455;52.390;13.028;2023-06-01T07:10:02;14.60;99.90
22578;DHT22;11455;52.390;13.028;2023-06-01T07:12:29;14.80;99.90
22578;DHT22;11455;52.390;13.028;2023-06-01T07:14:55;14.90;99.90
22578;DHT22;11455;52.390;13.028;2023-06-01T07:17:21;15.00;98.90
22578;DHT22;11455;52.390;13.028;2023-06-01T07:19:46;14.90;88.70
22578;DHT22;11455;52.390;13.028;2023-06-01T07:22:12;14.80;99.90
22578;DHT22;11455;52.390;13.028;2023-06-01T07:24:39;14.80;99.90
22578;DHT22;11455;52.390;13.028;2023-06-01T07:27:04;15.00;99.90
22578;DHT22;11455;52.390;13.028;2023-06-01T07:29:31;15.20;99.90
22578;DHT22;11455;52.390;13.028;2023-06-01T07:31:57;15.30;31.00
22578;DHT22;11455;52.390;13.028;2023-06-01T07:34:23;15.10;27.90
22578;DHT22;11455;52.390;13.028;2023-06-01T07:36:50;15.00;58.60
22578;DHT22;11455;52.390;13.028;2023-06-01T07:39:16;14.90;90.00
22578;DHT22;11455;52.390;13.028;2023-06-01T07:41:44;14.90;94.80
22578;DHT22;11455;52.390;13.028;2023-06-01T07:44:10;15.00;73.20
22578;DHT22;11455;52.390;13.028;2023-06-01T07:46:35;15.10;93.90
22578;DHT22;11455;52.390;13.028;2023-06-01T07:49:01;15.10;58.20
22578;DHT22;11455;52.390;13.028;2023-06-01T07:51:28;15.10;46.50
22578;DHT22;11455;52.390;13.028;2023-06-01T07:53:54;15.20;43.40
22578;DHT22;11455;52.390;13.028;2023-06-01T07:56:23;15.20;64.70
22578;DHT22;11455;52.390;13.028;2023-06-01T07:58:52;15.40;44.40
22578;DHT22;11455;52.390;13.028;2023-06-01T08:01:18;15.60;15.80
22578;DHT22;11455;52.390;13.028;2023-06-01T08:03:44;15.70;1.00
22578;DHT22;11455;52.390;13.028;2023-06-01T08:06:10;15.70;1.00
22578;DHT22;11455;52.390;13.028;2023-06-01T08:08:36;15.70;1.00
22578;DHT22;11455;52.390;13.028;2023-06-01T08:11:02;15.80;1.00
22578;DHT22;11455;52.390;13.028;2023-06-01T08:13:28;16.00;1.00
22578;DHT22;11455;52.390;13.028;2023-06-01T08:15:53;15.90;1.00
22578;DHT22;11455;52.390;13.028;2023-06-01T08:18:19;15.90;1.00
22578;DHT22;11455;52.390;13.028;2023-06-01T08:20:45;15.90;1.00
22578;DHT22;11455;52.390;13.028;2023-06-01T08:23:11;16.00;1.00
22578;DHT22;11455;52.390;13.028;2023-06-01T08:25:37;16.10;1.00
22578;DHT22;11455;52.390;13.028;2023-06-01T08:28:02;16.30;1.00
22578;DHT22;11455;52.390;13.028;2023-06-01T08:30:28;16.50;1.00
22578;DHT22;11455;52.390;13.028;2023-06-01T08:32:54;16.50;1.00
22578;DHT22;11455;52.390;13.028;2023-06-01T08:35:20;16.40;1.00
22578;DHT22;11455;52.390;13.028;2023-06-01T08:37:47;16.40;1.00
22578;DHT22;11455;52.390;13.028;2023-06-01T08:40:13;16.50;1.00
22578;DHT22;11455;52.390;13.028;2023-06-01T08:45:04;16.60;1.00
22578;DHT22;11455;52.390;13.028;2023-06-01T08:47:31;16.50;1.00
22578;DHT22;11455;52.390;13.028;2023-06-01T08:49:58;16.40;1.00
22578;DHT22;11455;52.390;13.028;2023-06-01T08:52:24;16.30;1.00
22578;DHT22;11455;52.390;13.028;2023-06-01T08:54:53;16.50;1.00
22578;DHT22;11455;52.390;13.028;2023-06-01T08:57:19;16.70;1.00
22578;DHT22;11455;52.390;13.028;2023-06-01T08:59:46;17.00;1.00
22578;DHT22;11455;52.390;13.028;2023-06-01T09:02:13;17.20;1.00
22578;DHT22;11455;52.390;13.028;2023-06-01T09:04:39;17.20;1.00
22578;DHT22;11455;52.390;13.028;2023-06-01T09:07:07;17.20;1.00
22578;DHT22;11455;52.390;13.028;2023-06-01T09:09:33;17.40;1.00
22578;DHT22;11455;52.390;13.028;2023-06-01T09:12:16;17.40;1.00
22578;DHT22;11455;52.390;13.028;2023-06-01T09:14:41;17.50;1.00
22578;DHT22;11455;52.390;13.028;2023-06-01T09:17:07;17.60;1.00
22578;DHT22;11455;52.390;13.028;2023-06-01T09:19:41;17.50;1.00
22578;DHT22;11455;52.390;13.028;2023-06-01T09:22:08;17.30;1.00
22578;DHT22;11455;52.390;13.028;2023-06-01T09:24:33;17.10;1.00
22578;DHT22;11455;52.390;13.028;2023-06-01T09:26:59;17.20;1.00
22578;DHT22;11455;52.390;13.028;2023-06-01T09:29:27;17.40;1.00
22578;DHT22;11455;52.390;13.028;2023-06-01T09:31:53;17.60;1.00
22578;DHT22;11455;52.390;13.028;2023-06-01T09:34:19;17.80;1.00
22578;DHT22;11455;52.390;13.028;2023-06-01T09:36:46;18.00;1.00
22578;DHT22;11455;52.390;13.028;2023-06-01T09:39:13;18.10;1.00
22578;DHT22;11455;52.390;13.028;2023-06-01T09:41:45;18.10;1.00
22578;DHT22;11455;52.390;13.028;2023-06-01T09:44:12;18.20;1.00
22578;DHT22;11455;52.390;13.028;2023-06-01T09:46:47;18.20;1.00
22578;DHT22;11455;52.390;13.028;2023-06-01T09:51:52;18.00;1.00
22578;DHT22;11455;52.390;13.028;2023-06-01T09:54:25;18.00;1.00
22578;DHT22;11455;52.390;13.028;2023-06-01T09:56:52;18.00;1.00
22578;DHT22;11455;52.390;13.028;2023-06-01T09:59:18;18.00;1.00
22578;DHT22;11455;52.390;13.028;2023-06-01T10:01:44;18.20;1.00
22578;DHT22;11455;52.390;13.028;2023-06-01T10:04:14;18.30;1.00
22578;DHT22;11455;52.390;13.028;2023-06-01T10:06:40;18.20;1.00
22578;DHT22;11455;52.390;13.028;2023-06-01T10:09:10;18.20;1.00
22578;DHT22;11455;52.390;13.028;2023-06-01T10:11:41;18.10;1.00
22578;DHT22;11455;52.390;13.028;2023-06-01T10:14:07;18.20;1.00
22578;DHT22;11455;52.390;13.028;2023-06-01T10:16:33;18.30;1.00
22578;DHT22;11455;52.390;13.028;2023-06-01T10:19:00;18.40;1.00
22578;DHT22;11455;52.390;13.028;2023-06-01T10:21:26;18.50;1.00
22578;DHT22;11455;52.390;13.028;2023-06-01T10:23:54;18.50;1.00
22578;DHT22;11455;52.390;13.028;2023-06-01T10:26:20;18.40;1.00
22578;DHT22;11455;52.390;13.028;2023-06-01T10:28:46;18.30;1.00
22578;DHT22;11455;52.390;13.028;2023-06-01T10:33:57;18.40;1.00
22578;DHT22;11455;52.390;13.028;2023-06-01T10:36:23;18.60;1.00
22578;DHT22;11455;52.390;13.028;2023-06-01T10:38:49;18.70;1.00
22578;DHT22;11455;52.390;13.028;2023-06-01T10:41:28;18.80;1.00
22578;DHT22;11455;52.390;13.028;2023-06-01T10:43:54;18.90;1.00
22578;DHT22;11455;52.390;13.028;2023-06-01T10:46:39;18.90;1.00
22578;DHT22;11455;52.390;13.028;2023-06-01T10:49:06;18.80;1.00
22578;DHT22;11455;52.390;13.028;2023-06-01T10:51:32;18.90;1.00
22578;DHT22;11455;52.390;13.028;2023-06-01T10:56:47;19.10;1.00
22578;DHT22;11455;52.390;13.028;2023-06-01T10:59:33;18.90;1.00
22578;DHT22;11455;52.390;13.028;2023-06-01T11:02:02;18.90;1.00
22578;DHT22;11455;52.390;13.028;2023-06-01T11:04:35;19.10;1.00
22578;DHT22;11455;52.390;13.028;2023-06-01T11:07:48;19.10;1.00
22578;DHT22;11455;52.390;13.028;2023-06-01T11:09:49;19.10;1.00
22578;DHT22;11455;52.390;13.028;2023-06-01T11:12:15;19.20;1.00
22578;DHT22;11455;52.390;13.028;2023-06-01T11:14:41;19.30;1.00
22578;DHT22;11455;52.390;13.028;2023-06-01T11:17:29;19.30;1.00
22578;DHT22;11455;52.390;13.028;2023-06-01T11:19:59;19.30;1.00
22578;DHT22;11455;52.390;13.028;2023-06-01T11:22:36;19.40;1.00
22578;DHT22;11455;52.390;13.028;2023-06-01T11:25:04;19.50;1.00
22578;DHT22;11455;52.390;13.028;2023-06-01T11:27:32;19.60;1.00
22578;DHT22;11455;52.390;13.028;2023-06-01T11:30:08;19.70;1.00
22578;DHT22;11455;52.390;13.028;2023-06-01T11:32:41;19.70;1.00
22578;DHT22;11455;52.390;13.028;2023-06-01T11:35:16;19.80;1.00
22578;DHT22;11455;52.390;13.028;2023-06-01T11:37:42;19.90;1.00
22578;DHT22;11455;52.390;13.028;2023-06-01T11:40:08;20.00;1.00
22578;DHT22;11455;52.390;13.028;2023-06-01T11:42:36;20.00;1.00
22578;DHT22;11455;52.390;13.028;2023-06-01T11:45:02;20.10;1.00
22578;DHT22;11455;52.390;13.028;2023-06-01T11:47:28;20.30;1.00
22578;DHT22;11455;52.390;13.028;2023-06-01T11:49:53;20.30;1.00
22578;DHT22;11455;52.390;13.028;2023-06-01T11:52:19;20.20;1.00
22578;DHT22;11455;52.390;13.028;2023-06-01T11:54:45;20.10;1.00
22578;DHT22;11455;52.390;13.028;2023-06-01T11:57:12;20.30;1.00
22578;DHT22;11455;52.390;13.028;2023-06-01T11:59:48;20.40;1.00
22578;DHT22;11455;52.390;13.028;2023-06-01T12:02:27;20.60;1.00
22578;DHT22;11455;52.390;13.028;2023-06-01T12:05:02;20.70;1.00
22578;DHT22;11455;52.390;13.028;2023-06-01T12:10:12;20.70;1.00
22578;DHT22;11455;52.390;13.028;2023-06-01T12:12:41;20.70;1.00
22578;DHT22;11455;52.390;13.028;2023-06-01T12:15:09;20.60;1.00
22578;DHT22;11455;52.390;13.028;2023-06-01T12:17:56;20.70;1.00
22578;DHT22;11455;52.390;13.028;2023-06-01T12:22:57;20.90;1.00
22578;DHT22;11455;52.390;13.028;2023-06-01T12:25:23;21.10;1.00
22578;DHT22;11455;52.390;13.028;2023-06-01T12:28:00;21.20;1.00
22578;DHT22;11455;52.390;13.028;2023-06-01T12:30:25;21.40;1.00
22578;DHT22;11455;52.390;13.028;2023-06-01T12:32:54;21.60;1.00
22578;DHT22;11455;52.390;13.028;2023-06-01T12:35:20;21.70;1.00
22578;DHT22;11455;52.390;13.028;2023-06-01T12:38:08;21.50;1.00
22578;DHT22;11455;52.390;13.028;2023-06-01T12:40:35;21.50;1.00
22578;DHT22;11455;52.390;13.028;2023-06-01T12:43:04;21.50;1.00
22578;DHT22;11455;52.390;13.028;2023-06-01T12:45:36;21.70;1.00
22578;DHT22;11455;52.390;13.028;2023-06-01T12:48:05;21.80;1.00
22578;DHT22;11455;52.390;13.028;2023-06-01T12:50:31;21.80;1.00
22578;DHT22;11455;52.390;13.028;2023-06-01T12:52:57;21.70;1.00
22578;DHT22;11455;52.390;13.028;2023-06-01T12:55:22;21.80;1.00
22578;DHT22;11455;52.390;13.028;2023-06-01T12:57:52;22.00;1.00
22578;DHT22;11455;52.390;13.028;2023-06-01T13:00:18;22.10;1.00
22578;DHT22;11455;52.390;13.028;2023-06-01T13:02:44;22.20;1.00
22578;DHT22;11455;52.390;13.028;2023-06-01T13:05:14;22.40;1.00
22578;DHT22;11455;52.390;13.028;2023-06-01T13:07:41;22.50;1.00
22578;DHT22;11455;52.390;13.028;2023-06-01T13:10:13;22.60;1.00
22578;DHT22;11455;52.390;13.028;2023-06-01T13:12:39;22.60;1.00
22578;DHT22;11455;52.390;13.028;2023-06-01T13:15:08;22.70;1.00
22578;DHT22;11455;52.390;13.028;2023-06-01T13:18:13;22.80;1.00
22578;DHT22;11455;52.390;13.028;2023-06-01T13:28:19;22.50;1.00
22578;DHT22;11455;52.390;13.028;2023-06-01T13:38:16;22.70;1.00
22578;DHT22;11455;52.390;13.028;2023-06-01T13:41:03;23.00;1.00
22578;DHT22;11455;52.390;13.028;2023-06-01T13:50:16;23.00;1.00
22578;DHT22;11455;52.390;13.028;2023-06-01T13:52:57;23.20;1.00
22578;DHT22;11455;52.390;13.028;2023-06-01T13:55:46;23.00;1.00
22578;DHT22;11455;52.390;13.028;2023-06-01T14:02:50;23.30;1.00
22578;DHT22;11455;52.390;13.028;2023-06-01T14:06:09;23.40;1.00
22578;DHT22;11455;52.390;13.028;2023-06-01T14:12:11;23.80;1.00
22578;DHT22;11455;52.390;13.028;2023-06-01T14:14:41;23.60;1.00
22578;DHT22;11455;52.390;13.028;2023-06-01T14:17:06;23.40;1.00
22578;DHT22;11455;52.390;13.028;2023-06-01T14:19:42;23.40;1.00
22578;DHT22;11455;52.390;13.028;2023-06-01T14:23:04;23.50;1.00
22578;DHT22;11455;52.390;13.028;2023-06-01T14:25:32;23.40;1.00
22578;DHT22;11455;52.390;13.028;2023-06-01T14:28:10;23.30;1.00
22578;DHT22;11455;52.390;13.028;2023-06-01T14:30:36;23.40;1.00
22578;DHT22;11455;52.390;13.028;2023-06-01T14:33:05;23.40;1.00
22578;DHT22;11455;52.390;13.028;2023-06-01T14:35:37;23.50;1.00
22578;DHT22;11455;52.390;13.028;2023-06-01T14:38:23;23.60;1.00
22578;DHT22;11455;52.390;13.028;2023-06-01T14:40:51;23.70;1.00
22578;DHT22;11455;52.390;13.028;2023-06-01T14:43:23;23.70;1.00
22578;DHT22;11455;52.390;13.028;2023-06-01T14:46:25;23.80;1.00
22578;DHT22;11455;52.390;13.028;2023-06-01T14:48:53;23.70;1.00
22578;DHT22;11455;52.390;13.028;2023-06-01T14:51:43;23.50;1.00
22578;DHT22;11455;52.390;13.028;2023-06-01T14:54:35;23.50;1.00
22578;DHT22;11455;52.390;13.028;2023-06-01T14:57:09;23.60;1.00
22578;DHT22;11455;52.390;13.028;2023-06-01T15:06:09;23.70;1.00
22578;DHT22;11455;52.390;13.028;2023-06-01T15:08:35;23.50;1.00
22578;DHT22;11455;52.390;13.028;2023-06-01T15:11:00;23.40;1.00
22578;DHT22;11455;52.390;13.028;2023-06-01T15:13:26;23.50;1.00
22578;DHT22;11455;52.390;13.028;2023-06-01T15:15:52;23.50;1.00
22578;DHT22;11455;52.390;13.028;2023-06-01T15:18:18;23.50;1.00
22578;DHT22;11455;52.390;13.028;2023-06-01T15:20:43;23.60;1.00
22578;DHT22;11455;52.390;13.028;2023-06-01T15:23:09;23.70;1.00
22578;DHT22;11455;52.390;13.028;2023-06-01T15:25:35;23.60;1.00
22578;DHT22;11455;52.390;13.028;2023-06-01T15:28:03;23.40;1.00
22578;DHT22;11455;52.390;13.028;2023-06-01T15:30:28;23.30;1.00
22578;DHT22;11455;52.390;13.028;2023-06-01T15:32:56;23.30;1.00
22578;DHT22;11455;52.390;13.028;2023-06-01T15:35:22;23.40;1.00
22578;DHT22;11455;52.390;13.028;2023-06-01T15:37:48;23.40;1.00
22578;DHT22;11455;52.390;13.028;2023-06-01T15:40:14;23.30;1.00
22578;DHT22;11455;52.390;13.028;2023-06-01T15:42:40;23.10;1.00
22578;DHT22;11455;52.390;13.028;2023-06-01T15:45:06;23.20;1.00
22578;DHT22;11455;52.390;13.028;2023-06-01T15:47:32;23.20;1.00
22578;DHT22;11455;52.390;13.028;2023-06-01T15:49:58;23.20;1.00
22578;DHT22;11455;52.390;13.028;2023-06-01T15:52:26;23.20;1.00
22578;DHT22;11455;52.390;13.028;2023-06-01T15:54:51;23.10;1.00
22578;DHT22;11455;52.390;13.028;2023-06-01T15:57:19;23.20;1.00
22578;DHT22;11455;52.390;13.028;2023-06-01T15:59:47;23.20;1.00
22578;DHT22;11455;52.390;13.028;2023-06-01T16:02:13;23.30;1.00
22578;DHT22;11455;52.390;13.028;2023-06-01T16:04:38;23.10;1.00
22578;DHT22;11455;52.390;13.028;2023-06-01T16:07:04;22.90;1.00
22578;DHT22;11455;52.390;13.028;2023-06-01T16:09:32;22.80;1.00
22578;DHT22;11455;52.390;13.028;2023-06-01T16:11:58;22.70;1.00
22578;DHT22;11455;52.390;13.028;2023-06-01T16:14:24;22.80;1.00
22578;DHT22;11455;52.390;13.028;2023-06-01T16:16:50;22.90;1.00
22578;DHT22;11455;52.390;13.028;2023-06-01T16:19:15;22.90;1.00
22578;DHT22;11455;52.390;13.028;2023-06-01T16:21:43;22.80;1.00
22578;DHT22;11455;52.390;13.028;2023-06-01T16:24:09;22.70;1.00
22578;DHT22;11455;52.390;13.028;2023-06-01T16:26:34;22.60;1.00
22578;DHT22;11455;52.390;13.028;2023-06-01T16:29:00;22.60;1.00
22578;DHT22;11455;52.390;13.028;2023-06-01T16:31:29;22.60;1.00